sensor_id;sensor_type;location;lat;lon;timestamp;pressure;altitude;pressure_sealevel;temperature;humidity
9474;BME280;8865;47.636;7.692;2023-04-24T00:00:56;97460.28;;;11.49;100.00
9474;BME280;8865;47.636;7.692;2023-04-24T00:03:23;97455.19;;;11.47;100.00
9474;BME280;8865;47.636;7.692;2023-04-24T00:05:49;97439.00;;;11.52;100.00
9474;BME280;8865;47.636;7.692;2023-04-24T00:08:15;97439.16;;;11.50;100.00
9474;BME280;8865;47.636;7.692;2023-04-24T00:10:41;97449.69;;;11.58;100.00
9474;BME280;8865;47.636;7.692;2023-04-24T00:13:08;97438.56;;;11.65;100.00
9474;BME280;8865;47.636;7.692;2023-04-24T00:15:34;97457.72;;;11.65;100.00
9474;BME280;8865;47.636;7.692;2023-04-24T00:18:00;97449.84;;;11.65;100.00
9474;BME280;8865;47.636;7.692;2023-04-24T00:20:27;97434.09;;;11.57;100.00
9474;BME280;8865;47.636;7.692;2023-04-24T00:22:55;97427.72;;;11.59;100.00
9474;BME280;8865;47.636;7.692;2023-04-24T00:25:21;97414.94;;;11.65;100.00
9474;BME280;8865;47.636;7.692;2023-04-24T00:27:47;97420.56;;;11.78;100.00
9474;BME280;8865;47.636;7.692;2023-04-24T00:30:13;97415.97;;;11.72;100.00
9474;BME280;8865;47.636;7.692;2023-04-24T00:32:39;97411.53;;;11.80;100.00
9474;BME280;8865;47.636;7.692;2023-04-24T00:35:06;97410.56;;;11.82;100.00
9474;BME280;8865;47.636;7.692;2023-04-24T00:37:32;97413.19;;;11.90;100.00
9474;BME280;8865;47.636;7.692;2023-04-24T00:39:58;97412.94;;;12.01;100.00
9474;BME280;8865;47.636;7.692;2023-04-24T00:42:24;97410.63;;;11.98;100.00
9474;BME280;8865;47.636;7.692;2023-04-24T00:44:51;97422.44;;;12.02;100.00
9474;BME280;8865;47.636;7.692;2023-04-24T00:47:18;97424.25;;;12.10;100.00
9474;BME280;8865;47.636;7.692;2023-04-24T00:49:44;97425.56;;;12.14;100.00
9474;BME280;8865;47.636;7.692;2023-04-24T00:52:10;97424.28;;;12.18;100.00
9474;BME280;8865;47.636;7.692;2023-04-24T00:54:38;97432.78;;;12.20;100.00
9474;BME280;8865;47.636;7.692;2023-04-24T00:57:04;97428.34;;;12.21;100.00
9474;BME280;8865;47.636;7.692;2023-04-24T00:59:30;97417.53;;;12.15;100.00
9474;BME280;8865;47.636;7.692;2023-04-24T01:01:57;97416.03;;;12.13;100.00
9474;BME280;8865;47.636;7.692;2023-04-24T01:04:24;97420.16;;;12.15;100.00
9474;BME280;8865;47.636;7.692;2023-04-24T01:06:50;97416.88;;;12.22;100.00
9474;BME280;8865;47.636;7.692;2023-04-24T01:09:17;97416.22;;;12.20;100.00
9474;BME280;8865;47.636;7.692;2023-04-24T01:11:43;97412.28;;;12.15;100.00
9474;BME280;8865;47.636;7.692;2023-04-24T01:14:10;97410.78;;;12.13;100.00
9474;BME280;8865;47.636;7.692;2023-04-24T01:16:36;97409.81;;;12.06;100.00
9474;BME280;8865;47.636;7.692;2023-04-24T01:19:06;97400.78;;;12.08;100.00
9474;BME280;8865;47.636;7.692;2023-04-24T01:21:34;97403.91;;;12.04;100.00
9474;BME280;8865;47.636;7.692;2023-04-24T01:24:03;97389.97;;;12.03;100.00
9474;BME280;8865;47.636;7.692;2023-04-24T01:26:29;97400.94;;;12.07;100.00
9474;BME280;8865;47.636;7.692;2023-04-24T01:28:55;97399.16;;;12.07;100.00
9474;BME280;8865;47.636;7.692;2023-04-24T01:31:22;97392.41;;;12.05;100.00
9474;BME280;8865;47.636;7.692;2023-04-24T01:33:49;97393.41;;;12.04;100.00
9474;BME280;8865;47.636;7.692;2023-04-24T01:36:16;97395.38;;;12.10;100.00
9474;BME280;8865;47.636;7.692;2023-04-24T01:38:42;97383.09;;;12.10;100.00
9474;BME280;8865;47.636;7.692;2023-04-24T01:41:08;97389.31;;;12.09;100.00
9474;BME280;8865;47.636;7.692;2023-04-24T01:43:34;97387.81;;;12.07;100.00
9474;BME280;8865;47.636;7.692;2023-04-24T01:46:00;97389.16;;;12.03;100.00
9474;BME280;8865;47.636;7.692;2023-04-24T01:48:26;97388.66;;;12.07;100.00
9474;BME280;8865;47.636;7.692;2023-04-24T01:50:53;97396.22;;;12.10;100.00
9474;BME280;8865;47.636;7.692;2023-04-24T01:53:19;97391.94;;;12.09;100.00
9474;BME280;8865;47.636;7.692;2023-04-24T01:55:45;97390.59;;;12.05;100.00
9474;BME280;8865;47.636;7.692;2023-04-24T01:58:11;97389.78;;;12.05;100.00
9474;BME280;8865;47.636;7.692;2023-04-24T02:00:37;97395.53;;;12.08;100.00
9474;BME280;8865;47.636;7.692;2023-04-24T02:03:03;97393.22;;;12.05;100.00
9474;BME280;8865;47.636;7.692;2023-04-24T02:05:29;97385.88;;;12.09;100.00
9474;BME280;8865;47.636;7.692;2023-04-24T02:07:55;97395.03;;;12.05;100.00
9474;BME280;8865;47.636;7.692;2023-04-24T02:10:21;97398.81;;;12.02;100.00
9474;BME280;8865;47.636;7.692;2023-04-24T02:12:50;97404.41;;;12.07;100.00
9474;BME280;8865;47.636;7.692;2023-04-24T02:15:17;97402.75;;;11.98;100.00
9474;BME280;8865;47.636;7.692;2023-04-24T02:17:43;97406.84;;;12.01;100.00
9474;BME280;8865;47.636;7.692;2023-04-24T02:20:09;97404.06;;;12.02;100.00
9474;BME280;8865;47.636;7.692;2023-04-24T02:22:35;97409.81;;;12.06;100.00
9474;BME280;8865;47.636;7.692;2023-04-24T02:25:01;97409.13;;;11.95;100.00
9474;BME280;8865;47.636;7.692;2023-04-24T02:27:27;97406.31;;;11.89;100.00
9474;BME280;8865;47.636;7.692;2023-04-24T02:29:54;97409.91;;;11.88;100.00
9474;BME280;8865;47.636;7.692;2023-04-24T02:32:21;97410.97;;;11.95;100.00
9474;BME280;8865;47.636;7.692;2023-04-24T02:34:46;97414.22;;;11.97;100.00
9474;BME280;8865;47.636;7.692;2023-04-24T02:37:12;97414.56;;;12.02;100.00
9474;BME280;8865;47.636;7.692;2023-04-24T02:39:38;97415.22;;;12.04;100.00
9474;BME280;8865;47.636;7.692;2023-04-24T02:42:04;97412.78;;;12.03;100.00
9474;BME280;8865;47.636;7.692;2023-04-24T02:44:31;97413.09;;;12.08;100.00
9474;BME280;8865;47.636;7.692;2023-04-24T02:46:57;97422.94;;;12.06;100.00
9474;BME280;8865;47.636;7.692;2023-04-24T02:49:22;97421.78;;;12.08;100.00
9474;BME280;8865;47.636;7.692;2023-04-24T02:51:48;97416.84;;;12.05;100.00
9474;BME280;8865;47.636;7.692;2023-04-24T02:54:14;97413.59;;;12.11;100.00
9474;BME280;8865;47.636;7.692;2023-04-24T02:56:40;97425.09;;;12.10;100.00
9474;BME280;8865;47.636;7.692;2023-04-24T02:59:07;97429.16;;;12.13;100.00
9474;BME280;8865;47.636;7.692;2023-04-24T03:01:33;97437.19;;;12.11;100.00
9474;BME280;8865;47.636;7.692;2023-04-24T03:03:59;97434.25;;;12.06;100.00
9474;BME280;8865;47.636;7.692;2023-04-24T03:06:25;97430.78;;;11.97;100.00
9474;BME280;8865;47.636;7.692;2023-04-24T03:08:52;97446.69;;;11.96;100.00
9474;BME280;8865;47.636;7.692;2023-04-24T03:11:19;97443.38;;;11.86;100.00
9474;BME280;8865;47.636;7.692;2023-04-24T03:13:45;97449.28;;;11.79;100.00
9474;BME280;8865;47.636;7.692;2023-04-24T03:16:11;97455.97;;;11.74;100.00
9474;BME280;8865;47.636;7.692;2023-04-24T03:18:37;97464.63;;;11.66;100.00
9474;BME280;8865;47.636;7.692;2023-04-24T03:21:03;97464.44;;;11.59;100.00
9474;BME280;8865;47.636;7.692;2023-04-24T03:23:29;97464.56;;;11.58;100.00
9474;BME280;8865;47.636;7.692;2023-04-24T03:25:55;97466.22;;;11.51;100.00
9474;BME280;8865;47.636;7.692;2023-04-24T03:28:21;97475.69;;;11.43;100.00
9474;BME280;8865;47.636;7.692;2023-04-24T03:30:47;97474.03;;;11.42;100.00
9474;BME280;8865;47.636;7.692;2023-04-24T03:33:13;97485.50;;;11.41;100.00
9474;BME280;8865;47.636;7.692;2023-04-24T03:35:39;97483.91;;;11.22;100.00
9474;BME280;8865;47.636;7.692;2023-04-24T03:38:05;97483.09;;;11.22;100.00
9474;BME280;8865;47.636;7.692;2023-04-24T03:40:31;97494.72;;;11.19;100.00
9474;BME280;8865;47.636;7.692;2023-04-24T03:42:59;97506.97;;;11.11;100.00
9474;BME280;8865;47.636;7.692;2023-04-24T03:45:25;97511.38;;;11.10;100.00
9474;BME280;8865;47.636;7.692;2023-04-24T03:47:51;97513.75;;;10.95;100.00
9474;BME280;8865;47.636;7.692;2023-04-24T03:50:17;97519.63;;;10.97;100.00
9474;BME280;8865;47.636;7.692;2023-04-24T03:52:43;97522.41;;;10.96;100.00
9474;BME280;8865;47.636;7.692;2023-04-24T03:55:09;97516.44;;;10.85;100.00
9474;BME280;8865;47.636;7.692;2023-04-24T03:57:40;97530.44;;;10.76;100.00
9474;BME280;8865;47.636;7.692;2023-04-24T04:00:07;97518.94;;;10.69;100.00
9474;BME280;8865;47.636;7.692;2023-04-24T04:02:33;97521.25;;;10.72;100.00
9474;BME280;8865;47.636;7.692;2023-04-24T04:04:59;97531.44;;;10.75;100.00
9474;BME280;8865;47.636;7.692;2023-04-24T04:07:25;97535.91;;;10.83;100.00
9474;BME280;8865;47.636;7.692;2023-04-24T04:09:51;97539.06;;;10.68;100.00
9474;BME280;8865;47.636;7.692;2023-04-24T04:12:17;97540.84;;;10.68;100.00
9474;BME280;8865;47.636;7.692;2023-04-24T04:14:43;97544.69;;;10.74;100.00
9474;BME280;8865;47.636;7.692;2023-04-24T04:17:09;97552.25;;;10.77;100.00
9474;BME280;8865;47.636;7.692;2023-04-24T04:19:35;97550.28;;;10.61;100.00
9474;BME280;8865;47.636;7.692;2023-04-24T04:22:01;97547.44;;;10.54;100.00
9474;BME280;8865;47.636;7.692;2023-04-24T04:24:27;97552.97;;;10.51;100.00
9474;BME280;8865;47.636;7.692;2023-04-24T04:26:54;97557.38;;;10.50;100.00
9474;BME280;8865;47.636;7.692;2023-04-24T04:29:22;97553.94;;;10.50;100.00
9474;BME280;8865;47.636;7.692;2023-04-24T04:31:48;97569.91;;;10.57;100.00
9474;BME280;8865;47.636;7.692;2023-04-24T04:34:14;97565.47;;;10.57;100.00
9474;BME280;8865;47.636;7.692;2023-04-24T04:36:41;97570.72;;;10.57;100.00
9474;BME280;8865;47.636;7.692;2023-04-24T04:39:07;97564.28;;;10.51;100.00
9474;BME280;8865;47.636;7.692;2023-04-24T04:41:33;97567.59;;;10.53;100.00
9474;BME280;8865;47.636;7.692;2023-04-24T04:44:01;97570.72;;;10.57;100.00
9474;BME280;8865;47.636;7.692;2023-04-24T04:46:31;97566.53;;;10.64;100.00
9474;BME280;8865;47.636;7.692;2023-04-24T04:49:00;97566.38;;;10.66;100.00
9474;BME280;8865;47.636;7.692;2023-04-24T04:51:27;97577.00;;;10.64;100.00
9474;BME280;8865;47.636;7.692;2023-04-24T04:53:53;97582.09;;;10.66;100.00
9474;BME280;8865;47.636;7.692;2023-04-24T04:56:19;97593.25;;;10.68;100.00
9474;BME280;8865;47.636;7.692;2023-04-24T04:58:45;97595.72;;;10.69;100.00
9474;BME280;8865;47.636;7.692;2023-04-24T05:01:11;97595.25;;;10.74;100.00
9474;BME280;8865;47.636;7.692;2023-04-24T05:03:37;97594.59;;;10.72;100.00
9474;BME280;8865;47.636;7.692;2023-04-24T05:06:03;97602.31;;;10.74;100.00
9474;BME280;8865;47.636;7.692;2023-04-24T05:08:29;97590.97;;;10.73;100.00
9474;BME280;8865;47.636;7.692;2023-04-24T05:10:55;97603.78;;;10.76;100.00
9474;BME280;8865;47.636;7.692;2023-04-24T05:13:21;97600.88;;;10.79;100.00
9474;BME280;8865;47.636;7.692;2023-04-24T05:15:47;97613.16;;;10.79;100.00
9474;BME280;8865;47.636;7.692;2023-04-24T05:18:13;97615.63;;;10.80;100.00
9474;BME280;8865;47.636;7.692;2023-04-24T05:20:39;97617.28;;;10.81;100.00
9474;BME280;8865;47.636;7.692;2023-04-24T05:23:05;97624.88;;;10.75;100.00
9474;BME280;8865;47.636;7.692;2023-04-24T05:25:31;97628.34;;;10.75;100.00
9474;BME280;8865;47.636;7.692;2023-04-24T05:28:01;97630.13;;;10.75;100.00
9474;BME280;8865;47.636;7.692;2023-04-24T05:30:28;97624.72;;;10.76;100.00
9474;BME280;8865;47.636;7.692;2023-04-24T05:32:53;97630.53;;;10.80;100.00
9474;BME280;8865;47.636;7.692;2023-04-24T05:35:19;97627.75;;;10.81;100.00
9474;BME280;8865;47.636;7.692;2023-04-24T05:37:45;97633.28;;;10.78;100.00
9474;BME280;8865;47.636;7.692;2023-04-24T05:40:11;97645.53;;;10.78;100.00
9474;BME280;8865;47.636;7.692;2023-04-24T05:42:37;97642.25;;;10.76;100.00
9474;BME280;8865;47.636;7.692;2023-04-24T05:45:04;97653.34;;;10.87;100.00
9474;BME280;8865;47.636;7.692;2023-04-24T05:47:30;97646.97;;;10.90;100.00
9474;BME280;8865;47.636;7.692;2023-04-24T05:49:56;97648.31;;;10.94;100.00
9474;BME280;8865;47.636;7.692;2023-04-24T05:52:22;97657.69;;;10.97;100.00
9474;BME280;8865;47.636;7.692;2023-04-24T05:54:48;97659.88;;;11.01;100.00
9474;BME280;8865;47.636;7.692;2023-04-24T05:57:14;97654.69;;;11.10;100.00
9474;BME280;8865;47.636;7.692;2023-04-24T05:59:40;97659.19;;;11.17;100.00
9474;BME280;8865;47.636;7.692;2023-04-24T06:02:07;97653.63;;;11.20;100.00
9474;BME280;8865;47.636;7.692;2023-04-24T06:04:33;97656.84;;;11.32;100.00
9474;BME280;8865;47.636;7.692;2023-04-24T06:06:59;97656.66;;;11.52;100.00
9474;BME280;8865;47.636;7.692;2023-04-24T06:09:26;97652.22;;;11.70;100.00
9474;BME280;8865;47.636;7.692;2023-04-24T06:11:51;97647.03;;;11.87;100.00
9474;BME280;8865;47.636;7.692;2023-04-24T06:14:20;97640.22;;;11.94;100.00
9474;BME280;8865;47.636;7.692;2023-04-24T06:16:46;97617.09;;;11.71;100.00
9474;BME280;8865;47.636;7.692;2023-04-24T06:19:12;97700.09;;;11.72;100.00
9474;BME280;8865;47.636;7.692;2023-04-24T06:21:38;97721.25;;;11.53;100.00
9474;BME280;8865;47.636;7.692;2023-04-24T06:24:04;97723.38;;;10.85;100.00
9474;BME280;8865;47.636;7.692;2023-04-24T06:26:30;97715.47;;;10.40;100.00
9474;BME280;8865;47.636;7.692;2023-04-24T06:28:56;97715.09;;;10.34;100.00
9474;BME280;8865;47.636;7.692;2023-04-24T06:31:24;97719.03;;;10.11;100.00
9474;BME280;8865;47.636;7.692;2023-04-24T06:33:50;97709.22;;;10.13;100.00
9474;BME280;8865;47.636;7.692;2023-04-24T06:36:16;97705.50;;;10.15;100.00
9474;BME280;8865;47.636;7.692;2023-04-24T06:38:43;97715.69;;;10.18;100.00
9474;BME280;8865;47.636;7.692;2023-04-24T06:41:09;97726.69;;;10.22;100.00
9474;BME280;8865;47.636;7.692;2023-04-24T06:43:35;97722.97;;;10.25;100.00
9474;BME280;8865;47.636;7.692;2023-04-24T06:46:02;97726.38;;;10.35;100.00
9474;BME280;8865;47.636;7.692;2023-04-24T06:48:29;97731.38;;;10.18;100.00
9474;BME280;8865;47.636;7.692;2023-04-24T06:50:55;97740.06;;;10.19;100.00
9474;BME280;8865;47.636;7.692;2023-04-24T06:53:21;97737.44;;;10.19;100.00
9474;BME280;8865;47.636;7.692;2023-04-24T06:55:47;97741.16;;;10.26;100.00
9474;BME280;8865;47.636;7.692;2023-04-24T06:58:14;97749.13;;;10.34;100.00
9474;BME280;8865;47.636;7.692;2023-04-24T07:00:41;97749.81;;;10.36;100.00
9474;BME280;8865;47.636;7.692;2023-04-24T07:03:08;97751.13;;;10.50;100.00
9474;BME280;8865;47.636;7.692;2023-04-24T07:05:34;97747.53;;;10.51;100.00
9474;BME280;8865;47.636;7.692;2023-04-24T07:08:00;97754.16;;;10.56;100.00
9474;BME280;8865;47.636;7.692;2023-04-24T07:10:27;97750.72;;;10.55;100.00
9474;BME280;8865;47.636;7.692;2023-04-24T07:12:55;97745.88;;;10.60;100.00
9474;BME280;8865;47.636;7.692;2023-04-24T07:15:22;97746.78;;;10.69;100.00
9474;BME280;8865;47.636;7.692;2023-04-24T07:17:49;97738.66;;;10.72;100.00
9474;BME280;8865;47.636;7.692;2023-04-24T07:20:15;97747.97;;;10.84;100.00
9474;BME280;8865;47.636;7.692;2023-04-24T07:22:41;97756.28;;;10.98;100.00
9474;BME280;8865;47.636;7.692;2023-04-24T07:25:08;97756.75;;;11.11;100.00
9474;BME280;8865;47.636;7.692;2023-04-24T07:27:34;97755.25;;;11.26;100.00
9474;BME280;8865;47.636;7.692;2023-04-24T07:30:03;97758.56;;;11.47;100.00
9474;BME280;8865;47.636;7.692;2023-04-24T07:32:29;97753.97;;;11.49;100.00
9474;BME280;8865;47.636;7.692;2023-04-24T07:34:55;97758.47;;;11.56;100.00
9474;BME280;8865;47.636;7.692;2023-04-24T07:37:22;97752.09;;;11.77;100.00
9474;BME280;8865;47.636;7.692;2023-04-24T07:39:48;97771.47;;;12.20;100.00
9474;BME280;8865;47.636;7.692;2023-04-24T07:42:15;97754.31;;;12.34;100.00
9474;BME280;8865;47.636;7.692;2023-04-24T07:44:41;97755.88;;;12.53;100.00
9474;BME280;8865;47.636;7.692;2023-04-24T07:47:07;97761.81;;;12.55;100.00
9474;BME280;8865;47.636;7.692;2023-04-24T07:49:34;97754.25;;;12.60;100.00
9474;BME280;8865;47.636;7.692;2023-04-24T07:52:00;97765.16;;;12.39;100.00
9474;BME280;8865;47.636;7.692;2023-04-24T07:54:28;97773.19;;;12.38;100.00
9474;BME280;8865;47.636;7.692;2023-04-24T07:56:54;97770.63;;;12.46;100.00
9474;BME280;8865;47.636;7.692;2023-04-24T07:59:20;97772.03;;;12.66;100.00
9474;BME280;8865;47.636;7.692;2023-04-24T08:01:46;97765.31;;;12.72;100.00
9474;BME280;8865;47.636;7.692;2023-04-24T08:04:12;97775.06;;;12.88;100.00
9474;BME280;8865;47.636;7.692;2023-04-24T08:06:38;97780.72;;;13.01;100.00
9474;BME280;8865;47.636;7.692;2023-04-24T08:09:04;97772.91;;;12.83;100.00
9474;BME280;8865;47.636;7.692;2023-04-24T08:11:30;97769.97;;;12.86;100.00
9474;BME280;8865;47.636;7.692;2023-04-24T08:13:57;97772.66;;;12.95;100.00
9474;BME280;8865;47.636;7.692;2023-04-24T08:16:23;97766.06;;;12.91;100.00
9474;BME280;8865;47.636;7.692;2023-04-24T08:18:50;97771.16;;;12.92;100.00
9474;BME280;8865;47.636;7.692;2023-04-24T08:21:16;97779.34;;;12.89;100.00
9474;BME280;8865;47.636;7.692;2023-04-24T08:23:45;97774.88;;;12.81;100.00
9474;BME280;8865;47.636;7.692;2023-04-24T08:26:12;97779.66;;;12.78;100.00
9474;BME280;8865;47.636;7.692;2023-04-24T08:28:38;97782.78;;;12.90;100.00
9474;BME280;8865;47.636;7.692;2023-04-24T08:31:04;97782.78;;;12.90;100.00
9474;BME280;8865;47.636;7.692;2023-04-24T08:33:30;97784.44;;;12.91;100.00
9474;BME280;8865;47.636;7.692;2023-04-24T08:36:04;97784.06;;;12.77;100.00
9474;BME280;8865;47.636;7.692;2023-04-24T08:38:30;97787.72;;;12.84;100.00
9474;BME280;8865;47.636;7.692;2023-04-24T08:40:58;97791.69;;;12.62;100.00
9474;BME280;8865;47.636;7.692;2023-04-24T08:43:25;97805.56;;;12.73;100.00
9474;BME280;8865;47.636;7.692;2023-04-24T08:45:52;97801.34;;;12.88;100.00
9474;BME280;8865;47.636;7.692;2023-04-24T08:48:18;97805.66;;;12.97;100.00
9474;BME280;8865;47.636;7.692;2023-04-24T08:50:45;97811.59;;;12.99;100.00
9474;BME280;8865;47.636;7.692;2023-04-24T08:53:11;97813.22;;;13.35;100.00
9474;BME280;8865;47.636;7.692;2023-04-24T08:55:37;97819.38;;;13.77;100.00
9474;BME280;8865;47.636;7.692;2023-04-24T08:58:04;97829.56;;;14.04;100.00
9474;BME280;8865;47.636;7.692;2023-04-24T09:00:31;97825.94;;;14.14;100.00
9474;BME280;8865;47.636;7.692;2023-04-24T09:03:00;97833.19;;;14.03;100.00
9474;BME280;8865;47.636;7.692;2023-04-24T09:05:27;97835.00;;;13.86;100.00
9474;BME280;8865;47.636;7.692;2023-04-24T09:07:55;97831.56;;;13.78;100.00
9474;BME280;8865;47.636;7.692;2023-04-24T09:10:23;97839.72;;;13.58;100.00
9474;BME280;8865;47.636;7.692;2023-04-24T09:12:50;97832.00;;;13.56;100.00
9474;BME280;8865;47.636;7.692;2023-04-24T09:15:19;97833.47;;;13.59;100.00
9474;BME280;8865;47.636;7.692;2023-04-24T09:17:46;97841.03;;;13.62;100.00
9474;BME280;8865;47.636;7.692;2023-04-24T09:20:13;97843.66;;;13.62;96.65
9474;BME280;8865;47.636;7.692;2023-04-24T09:22:39;97843.41;;;13.90;100.00
9474;BME280;8865;47.636;7.692;2023-04-24T09:25:07;97835.00;;;14.11;100.00
9474;BME280;8865;47.636;7.692;2023-04-24T09:27:33;97841.38;;;14.50;98.32
9474;BME280;8865;47.636;7.692;2023-04-24T09:30:00;97829.00;;;14.67;97.32
9474;BME280;8865;47.636;7.692;2023-04-24T09:32:27;97827.84;;;14.53;96.66
9474;BME280;8865;47.636;7.692;2023-04-24T09:35:11;97829.06;;;14.34;96.65
9474;BME280;8865;47.636;7.692;2023-04-24T09:37:43;97837.63;;;13.86;100.00
9474;BME280;8865;47.636;7.692;2023-04-24T09:40:20;97848.31;;;13.85;100.00
9474;BME280;8865;47.636;7.692;2023-04-24T09:45:17;97842.25;;;13.84;100.00
9474;BME280;8865;47.636;7.692;2023-04-24T09:47:44;97839.78;;;13.74;98.59
9474;BME280;8865;47.636;7.692;2023-04-24T09:50:11;97835.66;;;14.05;98.60
9474;BME280;8865;47.636;7.692;2023-04-24T09:52:45;97841.22;;;14.68;96.62
9474;BME280;8865;47.636;7.692;2023-04-24T09:55:14;97854.53;;;14.50;92.50
9474;BME280;8865;47.636;7.692;2023-04-24T09:57:58;97846.47;;;14.68;94.42
9474;BME280;8865;47.636;7.692;2023-04-24T10:00:31;97847.81;;;14.39;98.78
9474;BME280;8865;47.636;7.692;2023-04-24T10:02:59;97851.25;;;14.72;97.21
9474;BME280;8865;47.636;7.692;2023-04-24T10:05:35;97847.19;;;15.95;84.60
9474;BME280;8865;47.636;7.692;2023-04-24T10:08:07;97848.56;;;16.67;82.93
9474;BME280;8865;47.636;7.692;2023-04-24T10:10:41;97837.88;;;16.75;75.92
9474;BME280;8865;47.636;7.692;2023-04-24T10:13:08;97835.50;;;16.51;70.24
9474;BME280;8865;47.636;7.692;2023-04-24T10:15:34;97842.97;;;16.47;73.13
9474;BME280;8865;47.636;7.692;2023-04-24T10:18:01;97839.94;;;16.88;67.04
9474;BME280;8865;47.636;7.692;2023-04-24T10:20:29;97852.56;;;17.23;66.36
9474;BME280;8865;47.636;7.692;2023-04-24T10:22:57;97842.38;;;19.54;61.09
9474;BME280;8865;47.636;7.692;2023-04-24T10:25:28;97841.28;;;22.06;49.95
9474;BME280;8865;47.636;7.692;2023-04-24T10:27:55;97845.47;;;21.12;48.03
9474;BME280;8865;47.636;7.692;2023-04-24T10:30:30;97842.06;;;20.38;51.25
9474;BME280;8865;47.636;7.692;2023-04-24T10:32:59;97835.69;;;20.92;52.56
9474;BME280;8865;47.636;7.692;2023-04-24T10:35:25;97849.88;;;20.26;50.73
9474;BME280;8865;47.636;7.692;2023-04-24T10:38:09;97848.88;;;18.68;52.18
9474;BME280;8865;47.636;7.692;2023-04-24T10:40:37;97844.72;;;17.88;55.50
9474;BME280;8865;47.636;7.692;2023-04-24T10:43:04;97845.66;;;17.22;60.79
9474;BME280;8865;47.636;7.692;2023-04-24T10:45:33;97837.47;;;16.87;65.88
9474;BME280;8865;47.636;7.692;2023-04-24T10:48:04;97838.91;;;16.74;69.38
9474;BME280;8865;47.636;7.692;2023-04-24T10:50:53;97836.03;;;16.31;72.41
9474;BME280;8865;47.636;7.692;2023-04-24T10:53:21;97843.72;;;16.86;74.71
9474;BME280;8865;47.636;7.692;2023-04-24T10:55:57;97844.41;;;17.54;61.75
9474;BME280;8865;47.636;7.692;2023-04-24T10:58:26;97850.84;;;18.60;59.54
9474;BME280;8865;47.636;7.692;2023-04-24T11:01:01;97838.38;;;19.78;54.87
9474;BME280;8865;47.636;7.692;2023-04-24T11:08:25;97849.41;;;20.62;51.12
9474;BME280;8865;47.636;7.692;2023-04-24T11:11:03;97848.19;;;19.98;53.01
9474;BME280;8865;47.636;7.692;2023-04-24T11:16:31;97856.41;;;18.93;56.52
9474;BME280;8865;47.636;7.692;2023-04-24T11:19:21;97842.28;;;20.43;53.52
9474;BME280;8865;47.636;7.692;2023-04-24T11:27:21;97833.72;;;27.02;36.41
9474;BME280;8865;47.636;7.692;2023-04-24T11:35:14;97851.09;;;25.23;36.88
9474;BME280;8865;47.636;7.692;2023-04-24T11:37:43;97852.59;;;27.07;34.49
9474;BME280;8865;47.636;7.692;2023-04-24T11:40:13;97839.81;;;28.98;31.11
9474;BME280;8865;47.636;7.692;2023-04-24T11:42:45;97841.75;;;30.33;28.73
9474;BME280;8865;47.636;7.692;2023-04-24T11:45:13;97835.19;;;31.06;27.83
9474;BME280;8865;47.636;7.692;2023-04-24T11:47:41;97840.69;;;30.50;27.64
9474;BME280;8865;47.636;7.692;2023-04-24T11:50:09;97846.25;;;31.10;26.51
9474;BME280;8865;47.636;7.692;2023-04-24T11:52:40;97850.97;;;30.48;26.61
9474;BME280;8865;47.636;7.692;2023-04-24T11:57:46;97852.25;;;26.47;29.98
9474;BME280;8865;47.636;7.692;2023-04-24T12:00:21;97843.91;;;25.00;33.30
9474;BME280;8865;47.636;7.692;2023-04-24T12:02:48;97856.09;;;23.52;34.89
9474;BME280;8865;47.636;7.692;2023-04-24T12:05:22;97850.16;;;22.00;39.55
9474;BME280;8865;47.636;7.692;2023-04-24T12:07:48;97855.50;;;21.10;41.68
9474;BME280;8865;47.636;7.692;2023-04-24T12:10:20;97862.75;;;20.15;43.73
9474;BME280;8865;47.636;7.692;2023-04-24T12:12:46;97868.44;;;19.31;45.69
9474;BME280;8865;47.636;7.692;2023-04-24T12:15:12;97871.81;;;18.48;48.07
9474;BME280;8865;47.636;7.692;2023-04-24T12:17:41;97874.22;;;17.63;50.98
9474;BME280;8865;47.636;7.692;2023-04-24T12:20:08;97871.75;;;17.10;55.54
9474;BME280;8865;47.636;7.692;2023-04-24T12:22:49;97869.25;;;16.78;61.97
9474;BME280;8865;47.636;7.692;2023-04-24T12:25:16;97860.97;;;17.26;63.15
9474;BME280;8865;47.636;7.692;2023-04-24T12:27:44;97856.94;;;18.25;56.88
9474;BME280;8865;47.636;7.692;2023-04-24T12:30:13;97863.13;;;20.59;48.25
9474;BME280;8865;47.636;7.692;2023-04-24T12:32:47;97858.31;;;22.62;44.27
9474;BME280;8865;47.636;7.692;2023-04-24T12:35:18;97864.63;;;22.87;44.45
9474;BME280;8865;47.636;7.692;2023-04-24T12:37:45;97857.13;;;23.21;40.62
9474;BME280;8865;47.636;7.692;2023-04-24T12:40:12;97868.47;;;22.72;41.08
9474;BME280;8865;47.636;7.692;2023-04-24T12:42:46;97859.34;;;21.20;43.04
9474;BME280;8865;47.636;7.692;2023-04-24T12:45:13;97863.69;;;21.15;45.64
9474;BME280;8865;47.636;7.692;2023-04-24T12:47:40;97858.38;;;21.99;44.49
9474;BME280;8865;47.636;7.692;2023-04-24T12:50:12;97851.84;;;23.14;42.49
9474;BME280;8865;47.636;7.692;2023-04-24T12:52:39;97847.53;;;23.31;40.90
9474;BME280;8865;47.636;7.692;2023-04-24T12:55:06;97835.41;;;22.92;40.10
9474;BME280;8865;47.636;7.692;2023-04-24T12:57:37;97843.06;;;22.44;42.09
9474;BME280;8865;47.636;7.692;2023-04-24T13:00:05;97840.84;;;21.77;42.26
9474;BME280;8865;47.636;7.692;2023-04-24T13:02:31;97840.94;;;21.12;43.15
9474;BME280;8865;47.636;7.692;2023-04-24T13:04:58;97848.63;;;20.22;44.47
9474;BME280;8865;47.636;7.692;2023-04-24T13:07:26;97844.22;;;19.67;46.65
9474;BME280;8865;47.636;7.692;2023-04-24T13:09:55;97848.97;;;19.17;47.15
9474;BME280;8865;47.636;7.692;2023-04-24T13:12:21;97852.41;;;18.76;47.73
9474;BME280;8865;47.636;7.692;2023-04-24T13:14:49;97846.56;;;18.30;48.25
9474;BME280;8865;47.636;7.692;2023-04-24T13:17:15;97844.47;;;18.26;50.53
9474;BME280;8865;47.636;7.692;2023-04-24T13:19:43;97841.91;;;17.89;50.90
9474;BME280;8865;47.636;7.692;2023-04-24T13:22:10;97842.72;;;17.68;53.61
9474;BME280;8865;47.636;7.692;2023-04-24T13:24:37;97838.63;;;17.50;54.99
9474;BME280;8865;47.636;7.692;2023-04-24T13:27:04;97835.88;;;17.22;55.13
9474;BME280;8865;47.636;7.692;2023-04-24T13:29:30;97829.13;;;17.20;56.22
9474;BME280;8865;47.636;7.692;2023-04-24T13:31:56;97826.84;;;17.17;56.51
9474;BME280;8865;47.636;7.692;2023-04-24T13:34:25;97824.13;;;17.25;56.27
9474;BME280;8865;47.636;7.692;2023-04-24T13:36:54;97820.75;;;17.53;57.20
9474;BME280;8865;47.636;7.692;2023-04-24T13:39:21;97812.03;;;19.22;53.18